sensor_id;sensor_type;location;lat;lon;timestamp;P1;durP1;ratioP1;P2;durP2;ratioP2
37645;SDS011;23489;49.600;6.138;2023-07-31T00:01:39;5.18;;;2.72;;
37645;SDS011;23489;49.600;6.138;2023-07-31T00:04:05;5.27;;;2.67;;
37645;SDS011;23489;49.600;6.138;2023-07-31T00:06:30;6.17;;;2.63;;
37645;SDS011;23489;49.600;6.138;2023-07-31T00:08:56;8.07;;;3.60;;
37645;SDS011;23489;49.600;6.138;2023-07-31T00:11:21;5.30;;;2.50;;
37645;SDS011;23489;49.600;6.138;2023-07-31T00:13:47;6.10;;;2.50;;
37645;SDS011;23489;49.600;6.138;2023-07-31T00:16:13;5.15;;;2.72;;
37645;SDS011;23489;49.600;6.138;2023-07-31T00:18:38;5.87;;;2.70;;
37645;SDS011;23489;49.600;6.138;2023-07-31T00:21:04;5.57;;;2.40;;
37645;SDS011;23489;49.600;6.138;2023-07-31T00:23:29;5.27;;;2.60;;
37645;SDS011;23489;49.600;6.138;2023-07-31T00:25:55;6.60;;;2.53;;
37645;SDS011;23489;49.600;6.138;2023-07-31T00:28:20;5.57;;;2.80;;
37645;SDS011;23489;49.600;6.138;2023-07-31T00:30:46;6.35;;;2.55;;
37645;SDS011;23489;49.600;6.138;2023-07-31T00:33:12;4.47;;;2.77;;
37645;SDS011;23489;49.600;6.138;2023-07-31T00:35:37;5.13;;;2.43;;
37645;SDS011;23489;49.600;6.138;2023-07-31T00:38:03;4.13;;;2.50;;
37645;SDS011;23489;49.600;6.138;2023-07-31T00:40:28;9.07;;;2.97;;
37645;SDS011;23489;49.600;6.138;2023-07-31T00:42:54;5.10;;;2.78;;
37645;SDS011;23489;49.600;6.138;2023-07-31T00:45:20;5.80;;;2.80;;
37645;SDS011;23489;49.600;6.138;2023-07-31T00:47:48;5.45;;;2.65;;
37645;SDS011;23489;49.600;6.138;2023-07-31T00:50:14;5.63;;;2.85;;
37645;SDS011;23489;49.600;6.138;2023-07-31T00:52:40;7.80;;;2.75;;
37645;SDS011;23489;49.600;6.138;2023-07-31T00:55:05;6.27;;;2.83;;
37645;SDS011;23489;49.600;6.138;2023-07-31T00:57:32;8.85;;;3.10;;
37645;SDS011;23489;49.600;6.138;2023-07-31T00:59:58;5.97;;;3.50;;
37645;SDS011;23489;49.600;6.138;2023-07-31T01:02:24;6.13;;;2.90;;
37645;SDS011;23489;49.600;6.138;2023-07-31T01:04:51;6.07;;;3.00;;
37645;SDS011;23489;49.600;6.138;2023-07-31T01:07:20;8.13;;;3.40;;
37645;SDS011;23489;49.600;6.138;2023-07-31T01:10:03;7.20;;;2.97;;
37645;SDS011;23489;49.600;6.138;2023-07-31T01:12:36;5.32;;;3.05;;
37645;SDS011;23489;49.600;6.138;2023-07-31T01:15:07;6.80;;;3.20;;
37645;SDS011;23489;49.600;6.138;2023-07-31T01:17:37;6.80;;;2.80;;
37645;SDS011;23489;49.600;6.138;2023-07-31T01:20:05;6.65;;;2.95;;
37645;SDS011;23489;49.600;6.138;2023-07-31T01:29:16;6.65;;;2.90;;
37645;SDS011;23489;49.600;6.138;2023-07-31T01:31:26;7.40;;;3.10;;
37645;SDS011;23489;49.600;6.138;2023-07-31T01:33:54;7.70;;;2.90;;
37645;SDS011;23489;49.600;6.138;2023-07-31T01:36:24;6.10;;;2.90;;
37645;SDS011;23489;49.600;6.138;2023-07-31T01:38:50;6.13;;;3.10;;
37645;SDS011;23489;49.600;6.138;2023-07-31T01:41:16;4.57;;;2.90;;
37645;SDS011;23489;49.600;6.138;2023-07-31T01:43:43;5.78;;;2.88;;
37645;SDS011;23489;49.600;6.138;2023-07-31T01:46:09;6.03;;;2.53;;
37645;SDS011;23489;49.600;6.138;2023-07-31T01:48:34;6.03;;;2.67;;
37645;SDS011;23489;49.600;6.138;2023-07-31T01:51:02;6.70;;;2.88;;
37645;SDS011;23489;49.600;6.138;2023-07-31T01:53:28;10.75;;;3.50;;
37645;SDS011;23489;49.600;6.138;2023-07-31T01:55:57;7.53;;;2.90;;
37645;SDS011;23489;49.600;6.138;2023-07-31T01:58:22;4.90;;;2.80;;
37645;SDS011;23489;49.600;6.138;2023-07-31T02:00:48;6.30;;;2.90;;
37645;SDS011;23489;49.600;6.138;2023-07-31T02:03:14;5.80;;;3.00;;
37645;SDS011;23489;49.600;6.138;2023-07-31T02:05:46;5.90;;;2.80;;
37645;SDS011;23489;49.600;6.138;2023-07-31T02:08:12;7.63;;;2.70;;
37645;SDS011;23489;49.600;6.138;2023-07-31T02:10:38;6.70;;;3.00;;
37645;SDS011;23489;49.600;6.138;2023-07-31T02:13:04;7.22;;;3.25;;
37645;SDS011;23489;49.600;6.138;2023-07-31T02:15:30;6.80;;;3.20;;
37645;SDS011;23489;49.600;6.138;2023-07-31T02:17:56;5.32;;;3.00;;
37645;SDS011;23489;49.600;6.138;2023-07-31T02:20:21;6.43;;;3.47;;
37645;SDS011;23489;49.600;6.138;2023-07-31T02:22:47;5.68;;;2.92;;
37645;SDS011;23489;49.600;6.138;2023-07-31T02:25:13;5.18;;;3.20;;
37645;SDS011;23489;49.600;6.138;2023-07-31T02:27:38;6.90;;;3.17;;
37645;SDS011;23489;49.600;6.138;2023-07-31T02:30:04;6.73;;;3.60;;
37645;SDS011;23489;49.600;6.138;2023-07-31T02:32:30;7.65;;;3.50;;
37645;SDS011;23489;49.600;6.138;2023-07-31T02:34:56;6.43;;;3.33;;
37645;SDS011;23489;49.600;6.138;2023-07-31T02:37:22;6.63;;;2.90;;
37645;SDS011;23489;49.600;6.138;2023-07-31T02:39:48;6.78;;;3.40;;
37645;SDS011;23489;49.600;6.138;2023-07-31T02:42:14;6.85;;;3.35;;
37645;SDS011;23489;49.600;6.138;2023-07-31T02:44:39;8.25;;;3.25;;
37645;SDS011;23489;49.600;6.138;2023-07-31T02:47:05;8.30;;;3.55;;
37645;SDS011;23489;49.600;6.138;2023-07-31T02:49:33;6.18;;;3.22;;
37645;SDS011;23489;49.600;6.138;2023-07-31T02:51:58;8.77;;;3.40;;
37645;SDS011;23489;49.600;6.138;2023-07-31T02:54:24;7.73;;;3.47;;
37645;SDS011;23489;49.600;6.138;2023-07-31T02:56:49;7.15;;;3.20;;
37645;SDS011;23489;49.600;6.138;2023-07-31T02:59:16;8.00;;;3.33;;
37645;SDS011;23489;49.600;6.138;2023-07-31T03:01:42;7.15;;;3.40;;
37645;SDS011;23489;49.600;6.138;2023-07-31T03:04:08;6.37;;;3.73;;
37645;SDS011;23489;49.600;6.138;2023-07-31T03:06:33;8.05;;;3.33;;
37645;SDS011;23489;49.600;6.138;2023-07-31T03:08:59;7.93;;;3.17;;
37645;SDS011;23489;49.600;6.138;2023-07-31T03:11:24;6.83;;;3.10;;
37645;SDS011;23489;49.600;6.138;2023-07-31T03:13:50;5.93;;;2.93;;
37645;SDS011;23489;49.600;6.138;2023-07-31T03:16:16;8.77;;;3.30;;
37645;SDS011;23489;49.600;6.138;2023-07-31T03:18:41;6.55;;;3.03;;
37645;SDS011;23489;49.600;6.138;2023-07-31T03:21:07;7.07;;;3.22;;
37645;SDS011;23489;49.600;6.138;2023-07-31T03:23:33;7.67;;;3.50;;
37645;SDS011;23489;49.600;6.138;2023-07-31T03:26:02;7.13;;;3.17;;
37645;SDS011;23489;49.600;6.138;2023-07-31T03:28:33;8.23;;;3.10;;
37645;SDS011;23489;49.600;6.138;2023-07-31T03:30:58;7.82;;;3.28;;
37645;SDS011;23489;49.600;6.138;2023-07-31T03:33:25;6.47;;;3.40;;
37645;SDS011;23489;49.600;6.138;2023-07-31T03:35:51;8.57;;;3.47;;
37645;SDS011;23489;49.600;6.138;2023-07-31T03:38:16;7.53;;;3.03;;
37645;SDS011;23489;49.600;6.138;2023-07-31T03:40:42;6.87;;;2.90;;
37645;SDS011;23489;49.600;6.138;2023-07-31T03:43:08;7.10;;;3.30;;
37645;SDS011;23489;49.600;6.138;2023-07-31T03:45:34;5.57;;;3.08;;
37645;SDS011;23489;49.600;6.138;2023-07-31T03:47:59;8.93;;;3.40;;
37645;SDS011;23489;49.600;6.138;2023-07-31T03:50:25;6.57;;;3.13;;
37645;SDS011;23489;49.600;6.138;2023-07-31T03:52:51;7.80;;;3.30;;
37645;SDS011;23489;49.600;6.138;2023-07-31T03:55:17;8.68;;;3.50;;
37645;SDS011;23489;49.600;6.138;2023-07-31T03:57:43;10.52;;;3.90;;
37645;SDS011;23489;49.600;6.138;2023-07-31T04:00:09;6.60;;;3.33;;
37645;SDS011;23489;49.600;6.138;2023-07-31T04:02:38;6.43;;;3.15;;
37645;SDS011;23489;49.600;6.138;2023-07-31T04:05:03;6.67;;;3.37;;
37645;SDS011;23489;49.600;6.138;2023-07-31T04:07:29;5.43;;;3.10;;
37645;SDS011;23489;49.600;6.138;2023-07-31T04:09:55;6.75;;;3.10;;
37645;SDS011;23489;49.600;6.138;2023-07-31T04:12:22;6.33;;;3.33;;
37645;SDS011;23489;49.600;6.138;2023-07-31T04:14:47;7.85;;;3.38;;
37645;SDS011;23489;49.600;6.138;2023-07-31T04:17:13;7.63;;;3.47;;
37645;SDS011;23489;49.600;6.138;2023-07-31T04:19:38;6.63;;;3.42;;
37645;SDS011;23489;49.600;6.138;2023-07-31T04:22:04;7.27;;;3.57;;
37645;SDS011;23489;49.600;6.138;2023-07-31T04:24:29;5.97;;;3.07;;
37645;SDS011;23489;49.600;6.138;2023-07-31T04:26:55;6.87;;;3.10;;
37645;SDS011;23489;49.600;6.138;2023-07-31T04:29:21;7.07;;;3.08;;
37645;SDS011;23489;49.600;6.138;2023-07-31T04:31:47;7.30;;;3.30;;
37645;SDS011;23489;49.600;6.138;2023-07-31T04:34:13;7.27;;;3.30;;
37645;SDS011;23489;49.600;6.138;2023-07-31T04:36:39;6.13;;;3.05;;
37645;SDS011;23489;49.600;6.138;2023-07-31T04:39:04;7.40;;;3.55;;
37645;SDS011;23489;49.600;6.138;2023-07-31T04:41:30;6.17;;;3.30;;
37645;SDS011;23489;49.600;6.138;2023-07-31T04:43:56;6.60;;;3.07;;
37645;SDS011;23489;49.600;6.138;2023-07-31T04:46:21;7.40;;;3.22;;
37645;SDS011;23489;49.600;6.138;2023-07-31T04:48:47;6.50;;;3.10;;
37645;SDS011;23489;49.600;6.138;2023-07-31T04:51:12;5.53;;;2.77;;
37645;SDS011;23489;49.600;6.138;2023-07-31T04:53:38;5.97;;;3.10;;
37645;SDS011;23489;49.600;6.138;2023-07-31T04:56:04;5.13;;;3.20;;
37645;SDS011;23489;49.600;6.138;2023-07-31T04:58:29;6.05;;;2.92;;
37645;SDS011;23489;49.600;6.138;2023-07-31T05:00:55;7.35;;;3.28;;
37645;SDS011;23489;49.600;6.138;2023-07-31T05:03:20;8.60;;;3.07;;
37645;SDS011;23489;49.600;6.138;2023-07-31T05:05:46;8.07;;;2.97;;
37645;SDS011;23489;49.600;6.138;2023-07-31T05:08:12;7.10;;;2.83;;
37645;SDS011;23489;49.600;6.138;2023-07-31T05:10:37;7.05;;;2.97;;
37645;SDS011;23489;49.600;6.138;2023-07-31T05:13:03;7.27;;;3.40;;
37645;SDS011;23489;49.600;6.138;2023-07-31T05:15:29;7.37;;;3.10;;
37645;SDS011;23489;49.600;6.138;2023-07-31T05:17:54;7.22;;;3.22;;
37645;SDS011;23489;49.600;6.138;2023-07-31T05:20:20;7.45;;;3.10;;
37645;SDS011;23489;49.600;6.138;2023-07-31T05:22:46;7.83;;;3.20;;
37645;SDS011;23489;49.600;6.138;2023-07-31T05:25:12;7.50;;;2.90;;
37645;SDS011;23489;49.600;6.138;2023-07-31T05:27:37;6.93;;;2.93;;
37645;SDS011;23489;49.600;6.138;2023-07-31T05:30:03;5.53;;;2.73;;
37645;SDS011;23489;49.600;6.138;2023-07-31T05:32:30;4.63;;;2.80;;
37645;SDS011;23489;49.600;6.138;2023-07-31T05:34:55;7.40;;;2.83;;
37645;SDS011;23489;49.600;6.138;2023-07-31T05:37:21;4.63;;;2.50;;
37645;SDS011;23489;49.600;6.138;2023-07-31T05:39:47;7.95;;;3.38;;
37645;SDS011;23489;49.600;6.138;2023-07-31T05:42:13;5.95;;;2.78;;
37645;SDS011;23489;49.600;6.138;2023-07-31T05:44:39;8.30;;;2.87;;
37645;SDS011;23489;49.600;6.138;2023-07-31T05:47:04;5.73;;;2.90;;
37645;SDS011;23489;49.600;6.138;2023-07-31T05:49:30;6.15;;;2.65;;
37645;SDS011;23489;49.600;6.138;2023-07-31T05:51:55;5.47;;;2.70;;
37645;SDS011;23489;49.600;6.138;2023-07-31T05:54:21;6.20;;;2.83;;
37645;SDS011;23489;49.600;6.138;2023-07-31T05:56:47;6.20;;;2.70;;
37645;SDS011;23489;49.600;6.138;2023-07-31T05:59:12;8.25;;;2.65;;
37645;SDS011;23489;49.600;6.138;2023-07-31T06:01:38;5.00;;;2.28;;
37645;SDS011;23489;49.600;6.138;2023-07-31T06:04:04;7.10;;;2.58;;
37645;SDS011;23489;49.600;6.138;2023-07-31T06:06:30;5.45;;;2.65;;
37645;SDS011;23489;49.600;6.138;2023-07-31T06:08:56;4.82;;;2.58;;
37645;SDS011;23489;49.600;6.138;2023-07-31T06:11:21;6.70;;;2.60;;
37645;SDS011;23489;49.600;6.138;2023-07-31T06:13:48;5.93;;;2.55;;
37645;SDS011;23489;49.600;6.138;2023-07-31T06:16:15;6.78;;;3.13;;
37645;SDS011;23489;49.600;6.138;2023-07-31T06:18:41;7.28;;;3.15;;
37645;SDS011;23489;49.600;6.138;2023-07-31T06:21:07;5.63;;;2.60;;
37645;SDS011;23489;49.600;6.138;2023-07-31T06:23:33;5.80;;;2.97;;
37645;SDS011;23489;49.600;6.138;2023-07-31T06:25:59;5.28;;;2.50;;
37645;SDS011;23489;49.600;6.138;2023-07-31T06:28:28;6.05;;;3.00;;
37645;SDS011;23489;49.600;6.138;2023-07-31T06:30:55;6.60;;;2.70;;
37645;SDS011;23489;49.600;6.138;2023-07-31T06:33:20;6.05;;;2.83;;
37645;SDS011;23489;49.600;6.138;2023-07-31T06:35:46;5.67;;;2.80;;
37645;SDS011;23489;49.600;6.138;2023-07-31T06:38:11;3.83;;;2.47;;
37645;SDS011;23489;49.600;6.138;2023-07-31T06:40:37;4.77;;;2.67;;
37645;SDS011;23489;49.600;6.138;2023-07-31T06:43:03;5.40;;;2.63;;
37645;SDS011;23489;49.600;6.138;2023-07-31T06:45:35;6.13;;;2.80;;
37645;SDS011;23489;49.600;6.138;2023-07-31T06:48:02;5.40;;;2.93;;
37645;SDS011;23489;49.600;6.138;2023-07-31T06:50:29;8.20;;;2.70;;
37645;SDS011;23489;49.600;6.138;2023-07-31T06:52:57;6.50;;;2.67;;
37645;SDS011;23489;49.600;6.138;2023-07-31T06:55:24;4.88;;;2.63;;
37645;SDS011;23489;49.600;6.138;2023-07-31T06:57:58;6.55;;;2.67;;
37645;SDS011;23489;49.600;6.138;2023-07-31T07:00:23;5.35;;;2.88;;
37645;SDS011;23489;49.600;6.138;2023-07-31T07:02:49;5.60;;;2.40;;
37645;SDS011;23489;49.600;6.138;2023-07-31T07:05:15;6.03;;;2.50;;
37645;SDS011;23489;49.600;6.138;2023-07-31T07:07:41;4.53;;;2.58;;
37645;SDS011;23489;49.600;6.138;2023-07-31T07:10:07;4.07;;;2.70;;
37645;SDS011;23489;49.600;6.138;2023-07-31T07:12:33;5.15;;;2.50;;
37645;SDS011;23489;49.600;6.138;2023-07-31T07:15:00;5.82;;;2.72;;
37645;SDS011;23489;49.600;6.138;2023-07-31T07:17:27;4.25;;;2.67;;
37645;SDS011;23489;49.600;6.138;2023-07-31T07:19:53;4.88;;;2.50;;
37645;SDS011;23489;49.600;6.138;2023-07-31T07:22:19;5.23;;;2.67;;
37645;SDS011;23489;49.600;6.138;2023-07-31T07:24:44;4.13;;;2.40;;
37645;SDS011;23489;49.600;6.138;2023-07-31T07:27:10;5.07;;;2.67;;
37645;SDS011;23489;49.600;6.138;2023-07-31T07:29:37;4.72;;;2.40;;
37645;SDS011;23489;49.600;6.138;2023-07-31T07:32:03;4.18;;;2.65;;
37645;SDS011;23489;49.600;6.138;2023-07-31T07:34:29;5.53;;;2.58;;
37645;SDS011;23489;49.600;6.138;2023-07-31T07:36:55;5.97;;;2.70;;
37645;SDS011;23489;49.600;6.138;2023-07-31T07:39:20;4.97;;;2.50;;
37645;SDS011;23489;49.600;6.138;2023-07-31T07:41:46;4.50;;;2.60;;
37645;SDS011;23489;49.600;6.138;2023-07-31T07:44:13;4.13;;;2.53;;
37645;SDS011;23489;49.600;6.138;2023-07-31T07:46:39;5.20;;;2.85;;
37645;SDS011;23489;49.600;6.138;2023-07-31T07:49:04;9.88;;;3.72;;
37645;SDS011;23489;49.600;6.138;2023-07-31T07:51:30;6.00;;;3.30;;
37645;SDS011;23489;49.600;6.138;2023-07-31T07:53:59;4.35;;;2.88;;
37645;SDS011;23489;49.600;6.138;2023-07-31T07:56:25;5.53;;;2.80;;
37645;SDS011;23489;49.600;6.138;2023-07-31T07:58:52;6.22;;;3.00;;
37645;SDS011;23489;49.600;6.138;2023-07-31T08:01:18;5.20;;;2.85;;
37645;SDS011;23489;49.600;6.138;2023-07-31T08:03:44;4.38;;;2.42;;
37645;SDS011;23489;49.600;6.138;2023-07-31T08:06:10;5.57;;;2.72;;
37645;SDS011;23489;49.600;6.138;2023-07-31T08:08:36;4.50;;;2.50;;
37645;SDS011;23489;49.600;6.138;2023-07-31T08:11:02;4.43;;;2.42;;
37645;SDS011;23489;49.600;6.138;2023-07-31T08:13:27;4.03;;;2.80;;
37645;SDS011;23489;49.600;6.138;2023-07-31T08:15:53;5.35;;;2.80;;
37645;SDS011;23489;49.600;6.138;2023-07-31T08:18:19;6.00;;;2.90;;
37645;SDS011;23489;49.600;6.138;2023-07-31T08:20:45;4.73;;;2.87;;
37645;SDS011;23489;49.600;6.138;2023-07-31T08:23:10;11.07;;;3.07;;
37645;SDS011;23489;49.600;6.138;2023-07-31T08:25:36;4.93;;;2.73;;
37645;SDS011;23489;49.600;6.138;2023-07-31T08:28:03;5.38;;;2.85;;
37645;SDS011;23489;49.600;6.138;2023-07-31T08:30:29;4.65;;;2.28;;
37645;SDS011;23489;49.600;6.138;2023-07-31T08:32:55;4.18;;;2.50;;
37645;SDS011;23489;49.600;6.138;2023-07-31T08:35:21;5.57;;;2.30;;
37645;SDS011;23489;49.600;6.138;2023-07-31T08:37:46;5.23;;;2.40;;
37645;SDS011;23489;49.600;6.138;2023-07-31T08:40:12;5.73;;;2.73;;
37645;SDS011;23489;49.600;6.138;2023-07-31T08:42:45;5.22;;;2.20;;
37645;SDS011;23489;49.600;6.138;2023-07-31T08:45:15;4.20;;;2.20;;
37645;SDS011;23489;49.600;6.138;2023-07-31T08:47:45;3.95;;;2.20;;
37645;SDS011;23489;49.600;6.138;2023-07-31T08:50:13;3.60;;;2.53;;
37645;SDS011;23489;49.600;6.138;2023-07-31T08:52:39;5.45;;;2.63;;
37645;SDS011;23489;49.600;6.138;2023-07-31T08:55:05;7.90;;;2.50;;
37645;SDS011;23489;49.600;6.138;2023-07-31T08:57:32;3.63;;;2.20;;
37645;SDS011;23489;49.600;6.138;2023-07-31T09:00:00;5.03;;;2.13;;
37645;SDS011;23489;49.600;6.138;2023-07-31T09:02:31;5.70;;;2.65;;
37645;SDS011;23489;49.600;6.138;2023-07-31T09:05:07;4.40;;;2.70;;
37645;SDS011;23489;49.600;6.138;2023-07-31T09:07:34;3.95;;;2.40;;
37645;SDS011;23489;49.600;6.138;2023-07-31T09:10:01;5.00;;;2.30;;
37645;SDS011;23489;49.600;6.138;2023-07-31T09:12:27;4.60;;;2.38;;
37645;SDS011;23489;49.600;6.138;2023-07-31T09:14:53;3.53;;;2.45;;
37645;SDS011;23489;49.600;6.138;2023-07-31T09:17:28;4.30;;;2.17;;
37645;SDS011;23489;49.600;6.138;2023-07-31T09:19:56;3.47;;;2.20;;
37645;SDS011;23489;49.600;6.138;2023-07-31T09:22:31;5.20;;;2.40;;
37645;SDS011;23489;49.600;6.138;2023-07-31T09:25:04;4.75;;;2.60;;
37645;SDS011;23489;49.600;6.138;2023-07-31T09:28:00;6.47;;;3.92;;
37645;SDS011;23489;49.600;6.138;2023-07-31T09:30:28;3.67;;;2.03;;
37645;SDS011;23489;49.600;6.138;2023-07-31T09:33:01;3.43;;;1.90;;
37645;SDS011;23489;49.600;6.138;2023-07-31T09:37:57;3.53;;;1.80;;
37645;SDS011;23489;49.600;6.138;2023-07-31T09:40:34;5.13;;;2.00;;
37645;SDS011;23489;49.600;6.138;2023-07-31T09:45:28;3.83;;;2.10;;
37645;SDS011;23489;49.600;6.138;2023-07-31T09:47:54;4.10;;;2.10;;
37645;SDS011;23489;49.600;6.138;2023-07-31T09:50:21;3.58;;;1.88;;
37645;SDS011;23489;49.600;6.138;2023-07-31T09:52:49;4.80;;;1.73;;
37645;SDS011;23489;49.600;6.138;2023-07-31T09:55:18;4.20;;;2.00;;
37645;SDS011;23489;49.600;6.138;2023-07-31T09:57:45;5.07;;;2.03;;
37645;SDS011;23489;49.600;6.138;2023-07-31T10:00:12;3.60;;;2.05;;
37645;SDS011;23489;49.600;6.138;2023-07-31T10:02:40;2.70;;;1.90;;
37645;SDS011;23489;49.600;6.138;2023-07-31T10:05:06;4.30;;;1.90;;
37645;SDS011;23489;49.600;6.138;2023-07-31T10:07:37;4.47;;;2.08;;
37645;SDS011;23489;49.600;6.138;2023-07-31T10:10:04;2.92;;;2.25;;
37645;SDS011;23489;49.600;6.138;2023-07-31T10:12:32;3.33;;;1.85;;
37645;SDS011;23489;49.600;6.138;2023-07-31T10:14:59;3.67;;;2.10;;
37645;SDS011;23489;49.600;6.138;2023-07-31T10:17:25;3.63;;;2.10;;
37645;SDS011;23489;49.600;6.138;2023-07-31T10:19:52;3.53;;;2.13;;
37645;SDS011;23489;49.600;6.138;2023-07-31T10:22:21;3.80;;;2.00;;
37645;SDS011;23489;49.600;6.138;2023-07-31T10:24:48;3.53;;;2.15;;
37645;SDS011;23489;49.600;6.138;2023-07-31T10:27:15;4.77;;;2.23;;
37645;SDS011;23489;49.600;6.138;2023-07-31T10:29:41;3.90;;;2.08;;
37645;SDS011;23489;49.600;6.138;2023-07-31T10:32:09;3.30;;;2.30;;
37645;SDS011;23489;49.600;6.138;2023-07-31T10:34:36;7.43;;;2.50;;
37645;SDS011;23489;49.600;6.138;2023-07-31T10:37:20;4.60;;;2.40;;
37645;SDS011;23489;49.600;6.138;2023-07-31T10:40:03;6.03;;;2.40;;
37645;SDS011;23489;49.600;6.138;2023-07-31T10:45:24;5.22;;;2.55;;
37645;SDS011;23489;49.600;6.138;2023-07-31T10:48:02;4.15;;;2.40;;
37645;SDS011;23489;49.600;6.138;2023-07-31T10:50:30;4.00;;;2.35;;
37645;SDS011;23489;49.600;6.138;2023-07-31T10:52:58;4.70;;;2.60;;
37645;SDS011;23489;49.600;6.138;2023-07-31T10:55:32;4.22;;;2.38;;
37645;SDS011;23489;49.600;6.138;2023-07-31T10:58:05;4.65;;;2.63;;
37645;SDS011;23489;49.600;6.138;2023-07-31T11:00:32;5.75;;;3.38;;
37645;SDS011;23489;49.600;6.138;2023-07-31T11:02:59;4.60;;;2.63;;
37645;SDS011;23489;49.600;6.138;2023-07-31T11:05:43;5.35;;;2.40;;
37645;SDS011;23489;49.600;6.138;2023-07-31T11:08:13;5.22;;;2.63;;
37645;SDS011;23489;49.600;6.138;2023-07-31T11:10:41;3.92;;;2.67;;
37645;SDS011;23489;49.600;6.138;2023-07-31T11:13:08;4.78;;;2.45;;
37645;SDS011;23489;49.600;6.138;2023-07-31T11:15:34;5.53;;;2.50;;
37645;SDS011;23489;49.600;6.138;2023-07-31T11:18:02;4.97;;;2.50;;
37645;SDS011;23489;49.600;6.138;2023-07-31T11:20:30;4.00;;;2.40;;
37645;SDS011;23489;49.600;6.138;2023-07-31T11:23:07;5.15;;;2.50;;
37645;SDS011;23489;49.600;6.138;2023-07-31T11:25:34;4.82;;;2.60;;
37645;SDS011;23489;49.600;6.138;2023-07-31T11:28:04;5.43;;;2.60;;
37645;SDS011;23489;49.600;6.138;2023-07-31T11:30:30;8.02;;;2.47;;
37645;SDS011;23489;49.600;6.138;2023-07-31T11:32:56;4.30;;;2.47;;
37645;SDS011;23489;49.600;6.138;2023-07-31T11:35:22;4.43;;;2.42;;
37645;SDS011;23489;49.600;6.138;2023-07-31T11:37:47;4.03;;;2.38;;
37645;SDS011;23489;49.600;6.138;2023-07-31T11:40:13;8.48;;;2.70;;
37645;SDS011;23489;49.600;6.138;2023-07-31T11:42:39;8.63;;;2.97;;
37645;SDS011;23489;49.600;6.138;2023-07-31T11:45:06;3.42;;;2.10;;
37645;SDS011;23489;49.600;6.138;2023-07-31T11:47:33;6.03;;;2.40;;
37645;SDS011;23489;49.600;6.138;2023-07-31T11:50:00;4.97;;;2.70;;
37645;SDS011;23489;49.600;6.138;2023-07-31T11:52:27;6.25;;;2.30;;
37645;SDS011;23489;49.600;6.138;2023-07-31T11:54:57;4.40;;;2.50;;
37645;SDS011;23489;49.600;6.138;2023-07-31T11:57:24;6.45;;;2.50;;
37645;SDS011;23489;49.600;6.138;2023-07-31T11:59:50;3.88;;;2.70;;
37645;SDS011;23489;49.600;6.138;2023-07-31T12:02:17;3.85;;;2.40;;
37645;SDS011;23489;49.600;6.138;2023-07-31T12:04:45;4.80;;;2.53;;
37645;SDS011;23489;49.600;6.138;2023-07-31T12:07:11;4.60;;;2.78;;
37645;SDS011;23489;49.600;6.138;2023-07-31T12:09:37;4.93;;;3.05;;
37645;SDS011;23489;49.600;6.138;2023-07-31T12:12:05;5.72;;;2.97;;
37645;SDS011;23489;49.600;6.138;2023-07-31T12:14:34;6.10;;;2.88;;
37645;SDS011;23489;49.600;6.138;2023-07-31T12:17:04;4.82;;;2.80;;
37645;SDS011;23489;49.600;6.138;2023-07-31T12:19:32;7.85;;;3.30;;
37645;SDS011;23489;49.600;6.138;2023-07-31T12:22:02;6.27;;;3.40;;
37645;SDS011;23489;49.600;6.138;2023-07-31T12:24:37;6.88;;;3.35;;
37645;SDS011;23489;49.600;6.138;2023-07-31T12:27:14;5.07;;;3.10;;
37645;SDS011;23489;49.600;6.138;2023-07-31T12:29:43;5.15;;;3.38;;
37645;SDS011;23489;49.600;6.138;2023-07-31T12:32:24;6.33;;;3.33;;
37645;SDS011;23489;49.600;6.138;2023-07-31T12:34:50;5.30;;;2.85;;
37645;SDS011;23489;49.600;6.138;2023-07-31T12:37:16;6.63;;;3.05;;
37645;SDS011;23489;49.600;6.138;2023-07-31T12:39:42;6.22;;;3.25;;
37645;SDS011;23489;49.600;6.138;2023-07-31T12:42:08;4.87;;;2.87;;
37645;SDS011;23489;49.600;6.138;2023-07-31T12:44:33;6.07;;;3.15;;
37645;SDS011;23489;49.600;6.138;2023-07-31T12:46:59;6.57;;;3.00;;
37645;SDS011;23489;49.600;6.138;2023-07-31T12:49:24;4.90;;;2.92;;
37645;SDS011;23489;49.600;6.138;2023-07-31T12:51:50;6.33;;;3.10;;
37645;SDS011;23489;49.600;6.138;2023-07-31T12:54:16;5.40;;;2.80;;
37645;SDS011;23489;49.600;6.138;2023-07-31T12:56:41;7.70;;;3.07;;
37645;SDS011;23489;49.600;6.138;2023-07-31T12:59:07;6.18;;;3.30;;
37645;SDS011;23489;49.600;6.138;2023-07-31T13:01:32;3.80;;;2.90;;
37645;SDS011;23489;49.600;6.138;2023-07-31T13:03:58;6.43;;;3.20;;
37645;SDS011;23489;49.600;6.138;2023-07-31T13:06:24;6.88;;;2.95;;
37645;SDS011;23489;49.600;6.138;2023-07-31T13:08:50;6.50;;;3.20;;
37645;SDS011;23489;49.600;6.138;2023-07-31T13:11:16;4.97;;;3.17;;
37645;SDS011;23489;49.600;6.138;2023-07-31T13:13:42;6.30;;;3.47;;
37645;SDS011;23489;49.600;6.138;2023-07-31T13:16:07;9.18;;;3.47;;
37645;SDS011;23489;49.600;6.138;2023-07-31T13:18:33;5.68;;;3.25;;
37645;SDS011;23489;49.600;6.138;2023-07-31T13:20:59;7.20;;;3.40;;
37645;SDS011;23489;49.600;6.138;2023-07-31T13:23:24;5.13;;;2.83;;
37645;SDS011;23489;49.600;6.138;2023-07-31T13:25:50;6.40;;;3.28;;
37645;SDS011;23489;49.600;6.138;2023-07-31T13:28:18;6.70;;;4.03;;
37645;SDS011;23489;49.600;6.138;2023-07-31T13:30:43;5.40;;;3.10;;
37645;SDS011;23489;49.600;6.138;2023-07-31T13:33:09;6.67;;;3.40;;
37645;SDS011;23489;49.600;6.138;2023-07-31T13:35:35;5.93;;;3.00;;
37645;SDS011;23489;49.600;6.138;2023-07-31T13:38:00;6.65;;;3.17;;
37645;SDS011;23489;49.600;6.138;2023-07-31T13:40:26;8.85;;;3.45;;
37645;SDS011;23489;49.600;6.138;2023-07-31T13:42:51;6.37;;;3.20;;
37645;SDS011;23489;49.600;6.138;2023-07-31T13:45:18;7.20;;;3.47;;
37645;SDS011;23489;49.600;6.138;2023-07-31T13:47:43;6.80;;;3.37;;
37645;SDS011;23489;49.600;6.138;2023-07-31T13:50:09;6.17;;;3.70;;
37645;SDS011;23489;49.600;6.138;2023-07-31T13:52:35;9.18;;;3.63;;
37645;SDS011;23489;49.600;6.138;2023-07-31T13:55:01;6.22;;;3.60;;
37645;SDS011;23489;49.600;6.138;2023-07-31T13:57:26;8.10;;;3.63;;
37645;SDS011;23489;49.600;6.138;2023-07-31T13:59:53;8.88;;;4.00;;
37645;SDS011;23489;49.600;6.138;2023-07-31T14:02:19;6.93;;;3.75;;
37645;SDS011;23489;49.600;6.138;2023-07-31T14:04:44;6.30;;;3.80;;
37645;SDS011;23489;49.600;6.138;2023-07-31T14:07:10;8.00;;;4.00;;
37645;SDS011;23489;49.600;6.138;2023-07-31T14:09:36;9.80;;;4.20;;
37645;SDS011;23489;49.600;6.138;2023-07-31T14:12:01;9.63;;;4.10;;
37645;SDS011;23489;49.600;6.138;2023-07-31T23:21:06;7.30;;;4.68;;
37645;SDS011;23489;49.600;6.138;2023-07-31T23:23:31;8.13;;;4.87;;
37645;SDS011;23489;49.600;6.138;2023-07-31T23:25:57;7.85;;;5.07;;
37645;SDS011;23489;49.600;6.138;2023-07-31T23:28:23;9.83;;;5.93;;
37645;SDS011;23489;49.600;6.138;2023-07-31T23:30:49;7.53;;;4.50;;
37645;SDS011;23489;49.600;6.138;2023-07-31T23:33:15;7.47;;;5.35;;
37645;SDS011;23489;49.600;6.138;2023-07-31T23:35:41;6.43;;;4.60;;
37645;SDS011;23489;49.600;6.138;2023-07-31T23:38:06;5.67;;;4.43;;
37645;SDS011;23489;49.600;6.138;2023-07-31T23:40:32;5.72;;;3.50;;
37645;SDS011;23489;49.600;6.138;2023-07-31T23:42:57;5.67;;;3.40;;
37645;SDS011;23489;49.600;6.138;2023-07-31T23:45:23;4.80;;;3.37;;
37645;SDS011;23489;49.600;6.138;2023-07-31T23:47:48;3.70;;;2.67;;
37645;SDS011;23489;49.600;6.138;2023-07-31T23:50:16;3.72;;;2.40;;
37645;SDS011;23489;49.600;6.138;2023-07-31T23:52:42;3.60;;;2.50;;
37645;SDS011;23489;49.600;6.138;2023-07-31T23:55:09;3.03;;;2.57;;
37645;SDS011;23489;49.600;6.138;2023-07-31T23:57:36;5.10;;;3.33;;
